Nearby METAR Reports

 

KSEE - San Diego/Santee, California, USA
Distance from station: E 4mi, 6km
Updated: 06/18/2019 9:47am
Overcast
Overcast
 Wind from calm
Wind: Calm
Temperature: 64°F , 18°C
Dew Point: 55°F , 13°C
Humidity: 73%
Barometer: 29.98 inHg , 1015.2 hPa
Clouds: Overcast
Visibility: 8 miles , 13 km
Cloud details: Overcast 2000 ft
2019/06/18 16:47 KSEE 181647Z 00000KT 8SM OVC020 18/13 A2998
KMYF - San Diego/Mntgmy, California, USA
Distance from station: W 6mi, 10km
Updated: 06/18/2019 9:53am
Overcast
Overcast
 Wind from calm
Wind: Calm
Temperature: 63°F , 17°C
Dew Point: 54°F , 12°C
Humidity: 73%
Barometer: 29.98 inHg , 1015.2 hPa
Clouds: Overcast
Visibility: 10 miles , 16 km
Cloud details: Overcast 1700 ft
2019/06/18 16:53 KMYF 181653Z 00000KT 10SM OVC017 17/12 A2998 RMK AO2 SLP149 T01720122
 
KNKX - Miramar Nas/San, California, USA
Distance from station: WNW 7mi, 11km
Updated: 06/18/2019 9:55am
Overcast
Overcast
 Wind from varies
Wind: varies 5 mph , 7 km/h
Temperature: 66°F , 19°C
Dew Point: 55°F , 13°C
Humidity: 68%
Barometer: 29.97 inHg , 1014.9 hPa
Clouds: Overcast
Visibility: 10 miles , 16 km
Cloud details: Overcast 1600 ft
2019/06/18 16:55 KNKX 181655Z VRB04KT 10SM OVC016 19/13 A2997 RMK AO2 SLP145 T01940128 $
KSAN - San Diego, California, USA
Distance from station: WSW 11mi, 17km
Updated: 06/18/2019 9:51am
Overcast
Overcast
 Wind from SSW
Wind: SSW 6 mph , 9 km/h
Temperature: 63°F , 17°C
Dew Point: 55°F , 13°C
Humidity: 77%
Barometer: 29.98 inHg , 1015.2 hPa
Clouds: Overcast
Visibility: 10 miles , 16 km
Cloud details: Overcast 2000 ft
2019/06/18 16:51 KSAN 181651Z 21005KT 10SM OVC020 17/13 A2998 RMK AO2 SLP173 T01720128 $
 
KNZY - North Island Nas, California, USA
Distance from station: SW 13mi, 22km
Updated: 06/18/2019 9:52am
Overcast
Overcast
 Wind from SW
Wind: SW 5 mph , 7 km/h
Temperature: 64°F , 18°C
Dew Point: 55°F , 13°C
Humidity: 73%
Barometer: 29.97 inHg , 1014.9 hPa
Clouds: Overcast
Visibility: 10 miles , 16 km
Cloud details: Overcast 1900 ft
2019/06/18 16:52 KNZY 181652Z 22004KT 10SM OVC019 18/13 A2997 RMK AO2 SLP149 T01780128
KRNM - Ramona, California, USA
Distance from station: NNE 16mi, 26km
Updated: 06/18/2019 10:21am
Partly cloudy
Partly cloudy
 Wind from W
Wind: W 8 mph , 13 km/h
Temperature: 66°F , 19°C
Dew Point: 55°F , 13°C
Humidity: 68%
Barometer: 29.98 inHg , 1015.2 hPa
Clouds: Partly cloudy
Visibility: 10 miles , 16 km
Cloud details: Partly cloudy 1400 ft
2019/06/18 17:21 KRNM 181721Z 28007KT 10SM SCT014 19/13 A2998 RMK AO2 T01890128
 
KSDM - San Diego/Brown, California, USA
Distance from station: S 16mi, 26km
Updated: 06/18/2019 9:53am
Overcast
Overcast
 Wind from NW
Wind: NW 3 mph , 6 km/h
Temperature: 63°F , 17°C
Dew Point: 55°F , 13°C
Humidity: 77%
Barometer: 29.98 inHg , 1015.2 hPa
Clouds: Overcast
Visibility: 8 miles , 13 km
Cloud details: Overcast 1300 ft
2019/06/18 16:53 KSDM 181653Z 31003KT 8SM OVC013 17/13 A2998 RMK AO2 SLP148 T01720128
KNRS - Imperial Beach, California, USA
Distance from station: SSW 18mi, 29km
Updated: 06/18/2019 9:56am
Overcast
Overcast
 Wind from SW
Wind: SW 5 mph , 7 km/h
Temperature: 64°F , 18°C
Dew Point: 55°F , 13°C
Humidity: 73%
Barometer: 29.99 inHg , 1015.6 hPa
Clouds: Overcast
Visibility: 10 miles , 16 km
Cloud details: Overcast 1800 ft
2019/06/18 16:56 KNRS 181656Z 23004KT 10SM OVC018 18/13 A2999 RMK AO2 SLP153 T01780128 $
 
MMTJ - Tijuana Intl Arp, Mexico
Distance from station: S 20mi, 32km
Updated: 06/18/2019 9:47am
Haze, Overcast
Haze, Overcast
 Wind from calm
Wind: Calm
Temperature: 63°F , 17°C
Dew Point: 55°F , 13°C
Humidity: 77%
Barometer: 30.00 inHg , 1015.9 hPa
Summary: Haze
Clouds: Overcast
Visibility: 3 miles , 5 km
Cloud details: Overcast 1000 ft
2019/06/18 16:47 MMTJ 181647Z 00000KT 3SM HZ OVC010 17/13 A3000 RMK 8/6//
KCRQ - Carlsbad, California, USA
Distance from station: NW 26mi, 43km
Updated: 06/18/2019 10:01am
Haze, Overcast
Haze, Overcast
 Wind from W
Wind: W 5 mph , 7 km/h
Temperature: 63°F , 17°C
Dew Point: 57°F , 14°C
Humidity: 83%
Barometer: 29.97 inHg , 1014.9 hPa
Summary: Haze
Clouds: Overcast
Visibility: 4 miles , 6 km
Cloud details: Overcast 1000 ft
2019/06/18 17:01 KCRQ 181701Z AUTO 26004KT 4SM HZ OVC010 17/14 A2997 RMK AO2 T01720144
 
KOKB - Oceanside, California, USA
Distance from station: NW 33mi, 54km
Updated: 06/18/2019 9:52am
Overcast
Overcast
 Wind from WSW
Wind: WSW 7 mph , 11 km/h
Temperature: 64°F , 18°C
Dew Point: 57°F , 14°C
Humidity: 78%
Barometer: 29.97 inHg , 1014.9 hPa
Clouds: Overcast
Visibility: 9 miles , 14 km
Cloud details: Overcast 1400 ft
2019/06/18 16:52 KOKB 181652Z AUTO 25006KT 9SM OVC014 18/14 A2997 RMK AO2 SLP147 T01780144
KCZZ - Campo, California, USA
Distance from station: ESE 35mi, 56km
Updated: 06/18/2019 9:52am

 Wind from SSW
Wind: SSW 7 mph , 11 km/h
Temperature: 72°F , 22°C
Dew Point: 46°F , 8°C
Humidity: 41%
Barometer: 29.94 inHg , 1013.9 hPa
2019/06/18 16:52 KCZZ 181652Z AUTO 21006KT 22/08 A2994 RMK AO1 SLP112 T02220078
 
KNFG - Camp Pendleton, California, USA
Distance from station: NNW 37mi, 59km
Updated: 06/18/2019 9:55am
Mist, Overcast
Mist, Overcast
 Wind from WSW
Wind: WSW 5 mph , 7 km/h
Temperature: 63°F , 17°C
Dew Point: 59°F , 15°C
Humidity: 88%
Barometer: 29.97 inHg , 1014.9 hPa
Summary: Mist
Clouds: Overcast
Visibility: 5 miles , 8 km
Cloud details: Overcast 1600 ft
2019/06/18 16:55 KNFG 181655Z 25004KT 5SM BR OVC016 17/15 A2997 RMK AO2 SLP148 T01720150 $
KRIV - Riverside/March, California, USA
Distance from station: N 74mi, 119km
Updated: 06/18/2019 9:58am
Few Clouds
Few Clouds
 Wind from N
Wind: N 5 mph , 7 km/h
Temperature: 66°F , 19°C
Dew Point: 63°F , 17°C
Humidity: 88%
Barometer: 29.97 inHg , 1014.9 hPa
Clouds: Few Clouds
Visibility: 10 miles , 16 km
Cloud details: Few Clouds 1400 ft
2019/06/18 16:58 KRIV 181658Z 36004KT 10SM FEW014 19/17 A2997 RMK AO2A SLP141 T01930169
 
KTRM - Thermal/Palm Spg, California, USA
Distance from station: NE 75mi, 121km
Updated: 06/18/2019 9:52am
Clear
Clear
 Wind from varies
Wind: varies 3 mph , 6 km/h
Temperature: 91°F , 33°C
Dew Point: 54°F , 12°C
Humidity: 28%
Barometer: 29.82 inHg , 1009.8 hPa
Clouds: Clear
Visibility: 10 miles , 16 km
2019/06/18 16:52 KTRM 181652Z AUTO VRB03KT 10SM CLR 33/12 A2982 RMK AO2 SLP101 T03280122
KPSP - Palm Springs, California, USA
Distance from station: NNE 76mi, 122km
Updated: 06/18/2019 9:53am
Clear
Clear
 Wind from E
Wind: E 5 mph , 7 km/h
Temperature: 88°F , 31°C
Dew Point: 54°F , 12°C
Humidity: 31%
Barometer: 29.87 inHg , 1011.5 hPa
Clouds: Clear
Visibility: 10 miles , 16 km
2019/06/18 16:53 KPSP 181653Z 10004KT 10SM CLR 31/12 A2987 RMK AO2 SLP111 T03110117
 
KSNA - Costa Mesa, California, USA
Distance from station: NW 76mi, 123km
Updated: 06/18/2019 9:53am
Overcast
Overcast
 Wind from SSW
Wind: SSW 6 mph , 9 km/h
Temperature: 64°F , 18°C
Dew Point: 55°F , 13°C
Humidity: 73%
Barometer: 29.97 inHg , 1014.9 hPa
Clouds: Overcast
Visibility: 10 miles , 16 km
Cloud details: Overcast 1600 ft
2019/06/18 16:53 KSNA 181653Z 21005KT 10SM OVC016 18/13 A2997 RMK AO2 SLP147 T01830133
KNJK - El Centro Naf, California, USA
Distance from station: E 79mi, 127km
Updated: 06/18/2019 9:56am
Few Clouds
Few Clouds
 Wind from N
Wind: N 7 mph , 11 km/h
Temperature: 88°F , 31°C
Dew Point: 55°F , 13°C
Humidity: 33%
Barometer: 29.84 inHg , 1010.5 hPa
Clouds: Few Clouds
Visibility: 10 miles , 16 km
Cloud details: Few Clouds 25000 ft
2019/06/18 16:56 KNJK 181656Z 35006KT 10SM FEW250 31/13 A2984 RMK AO2 SLP120 T03060128
 
KAJO - Corona Muni, California, USA
Distance from station: NNW 82mi, 132km
Updated: 06/18/2019 9:56am
Overcast
Overcast
 
Temperature: 64°F , 18°C
Dew Point: 57°F , 14°C
Humidity: 78%
Clouds: Overcast
Visibility: 7 miles , 11 km
Cloud details: Overcast 1500 ft
2019/06/18 16:56 KAJO 181656Z AUTO 7SM OVC015 18/14 RMK AO2 SLPNO T01830144 $